Terminal Aerodrome Forecast
Issued by NWS

Home | Current Version | Previous Version | Text Only | Print | Product List | Glossary On
Versions: 1 2 3 4 5 6 7 8 9 10 11 12 13 14 15
000
FTUS45 KFGZ 221138
TAFGCN
TAF
KGCN 221138Z 2212/2312 VRB06KT 6SM -SHRA SCT040 OVC070
      TEMPO 2212/2214 3SM -TSRA BKN040CB
     FM221500 VRB05KT P6SM SCT050 BKN080
     FM221900 24006KT P6SM VCTS SCT070CB BKN100
     FM222300 VRB05KT P6SM SCT070 BKN120=

USA.gov is the U.S. government's official web portal to all federal, state and local government web resources and services.